sensor_id;sensor_type;location;lat;lon;timestamp;P1;durP1;ratioP1;P2;durP2;ratioP2
56116;SDS011;41989;45.356;20.392;2023-04-23T00:01:37;23.10;;;11.68;;
56116;SDS011;41989;45.356;20.392;2023-04-23T00:04:07;21.48;;;13.15;;
56116;SDS011;41989;45.356;20.392;2023-04-23T00:06:34;22.35;;;12.05;;
56116;SDS011;41989;45.356;20.392;2023-04-23T00:09:03;19.33;;;12.27;;
56116;SDS011;41989;45.356;20.392;2023-04-23T00:11:30;16.55;;;11.70;;
56116;SDS011;41989;45.356;20.392;2023-04-23T00:13:57;24.75;;;12.85;;
56116;SDS011;41989;45.356;20.392;2023-04-23T00:16:23;20.58;;;11.68;;
56116;SDS011;41989;45.356;20.392;2023-04-23T00:18:49;17.52;;;10.65;;
56116;SDS011;41989;45.356;20.392;2023-04-23T00:21:18;20.27;;;11.65;;
56116;SDS011;41989;45.356;20.392;2023-04-23T00:23:45;19.35;;;11.02;;
56116;SDS011;41989;45.356;20.392;2023-04-23T00:26:11;19.95;;;12.45;;
56116;SDS011;41989;45.356;20.392;2023-04-23T00:28:37;19.20;;;10.50;;
56116;SDS011;41989;45.356;20.392;2023-04-23T00:31:03;24.67;;;11.65;;
56116;SDS011;41989;45.356;20.392;2023-04-23T00:33:29;20.00;;;12.60;;
56116;SDS011;41989;45.356;20.392;2023-04-23T00:35:55;19.73;;;11.55;;
56116;SDS011;41989;45.356;20.392;2023-04-23T00:38:21;21.30;;;11.13;;
56116;SDS011;41989;45.356;20.392;2023-04-23T00:40:48;19.80;;;10.80;;
56116;SDS011;41989;45.356;20.392;2023-04-23T00:43:14;15.38;;;10.55;;
56116;SDS011;41989;45.356;20.392;2023-04-23T00:45:41;16.40;;;10.70;;
56116;SDS011;41989;45.356;20.392;2023-04-23T00:48:07;17.42;;;10.55;;
56116;SDS011;41989;45.356;20.392;2023-04-23T00:50:33;21.83;;;10.75;;
56116;SDS011;41989;45.356;20.392;2023-04-23T00:53:00;15.13;;;10.15;;
56116;SDS011;41989;45.356;20.392;2023-04-23T00:55:26;22.02;;;11.30;;
56116;SDS011;41989;45.356;20.392;2023-04-23T00:57:52;18.92;;;10.63;;
56116;SDS011;41989;45.356;20.392;2023-04-23T01:00:19;18.63;;;11.52;;
56116;SDS011;41989;45.356;20.392;2023-04-23T01:02:49;21.05;;;11.32;;
56116;SDS011;41989;45.356;20.392;2023-04-23T01:05:16;19.38;;;11.88;;
56116;SDS011;41989;45.356;20.392;2023-04-23T01:07:45;24.17;;;10.88;;
56116;SDS011;41989;45.356;20.392;2023-04-23T01:10:14;17.05;;;10.30;;
56116;SDS011;41989;45.356;20.392;2023-04-23T01:12:40;19.08;;;9.65;;
56116;SDS011;41989;45.356;20.392;2023-04-23T01:15:06;15.00;;;10.50;;
56116;SDS011;41989;45.356;20.392;2023-04-23T01:17:33;14.45;;;10.00;;
56116;SDS011;41989;45.356;20.392;2023-04-23T01:19:59;15.15;;;10.40;;
56116;SDS011;41989;45.356;20.392;2023-04-23T01:22:25;18.38;;;10.82;;
56116;SDS011;41989;45.356;20.392;2023-04-23T01:24:51;17.52;;;11.63;;
56116;SDS011;41989;45.356;20.392;2023-04-23T01:27:17;15.60;;;10.15;;
56116;SDS011;41989;45.356;20.392;2023-04-23T01:29:44;16.33;;;10.95;;
56116;SDS011;41989;45.356;20.392;2023-04-23T01:32:10;14.27;;;10.38;;
56116;SDS011;41989;45.356;20.392;2023-04-23T01:34:37;16.23;;;10.23;;
56116;SDS011;41989;45.356;20.392;2023-04-23T01:37:03;17.45;;;10.63;;
56116;SDS011;41989;45.356;20.392;2023-04-23T01:39:30;17.77;;;10.57;;
56116;SDS011;41989;45.356;20.392;2023-04-23T01:41:56;13.50;;;10.02;;
56116;SDS011;41989;45.356;20.392;2023-04-23T01:44:22;14.38;;;9.82;;
56116;SDS011;41989;45.356;20.392;2023-04-23T01:46:48;17.88;;;10.23;;
56116;SDS011;41989;45.356;20.392;2023-04-23T01:49:14;15.63;;;10.63;;
56116;SDS011;41989;45.356;20.392;2023-04-23T01:51:41;19.05;;;10.60;;
56116;SDS011;41989;45.356;20.392;2023-04-23T01:54:07;13.45;;;9.40;;
56116;SDS011;41989;45.356;20.392;2023-04-23T01:56:33;14.85;;;9.70;;
56116;SDS011;41989;45.356;20.392;2023-04-23T01:59:00;14.95;;;9.98;;
56116;SDS011;41989;45.356;20.392;2023-04-23T02:01:39;14.23;;;10.20;;
56116;SDS011;41989;45.356;20.392;2023-04-23T02:04:06;20.48;;;10.45;;
56116;SDS011;41989;45.356;20.392;2023-04-23T02:06:32;12.77;;;8.77;;
56116;SDS011;41989;45.356;20.392;2023-04-23T02:08:58;15.40;;;9.63;;
56116;SDS011;41989;45.356;20.392;2023-04-23T02:11:24;12.68;;;9.20;;
56116;SDS011;41989;45.356;20.392;2023-04-23T02:13:51;14.38;;;8.90;;
56116;SDS011;41989;45.356;20.392;2023-04-23T02:16:17;12.93;;;8.55;;
56116;SDS011;41989;45.356;20.392;2023-04-23T02:18:43;12.73;;;8.93;;
56116;SDS011;41989;45.356;20.392;2023-04-23T02:21:09;12.93;;;9.10;;
56116;SDS011;41989;45.356;20.392;2023-04-23T02:23:37;16.60;;;10.57;;
56116;SDS011;41989;45.356;20.392;2023-04-23T02:26:03;16.35;;;11.05;;
56116;SDS011;41989;45.356;20.392;2023-04-23T02:28:29;17.05;;;9.45;;
56116;SDS011;41989;45.356;20.392;2023-04-23T02:30:55;12.18;;;9.35;;
56116;SDS011;41989;45.356;20.392;2023-04-23T02:33:21;17.20;;;9.30;;
56116;SDS011;41989;45.356;20.392;2023-04-23T02:35:48;13.05;;;8.85;;
56116;SDS011;41989;45.356;20.392;2023-04-23T02:38:14;15.77;;;9.80;;
56116;SDS011;41989;45.356;20.392;2023-04-23T02:40:40;12.68;;;9.15;;
56116;SDS011;41989;45.356;20.392;2023-04-23T02:43:07;16.08;;;9.55;;
56116;SDS011;41989;45.356;20.392;2023-04-23T02:45:33;12.35;;;8.57;;
56116;SDS011;41989;45.356;20.392;2023-04-23T02:47:59;17.38;;;8.68;;
56116;SDS011;41989;45.356;20.392;2023-04-23T02:50:26;13.88;;;8.65;;
56116;SDS011;41989;45.356;20.392;2023-04-23T02:52:52;12.15;;;8.98;;
56116;SDS011;41989;45.356;20.392;2023-04-23T02:55:18;15.25;;;8.88;;
56116;SDS011;41989;45.356;20.392;2023-04-23T02:57:44;16.33;;;9.45;;
56116;SDS011;41989;45.356;20.392;2023-04-23T03:00:10;18.73;;;9.52;;
56116;SDS011;41989;45.356;20.392;2023-04-23T03:02:38;11.88;;;9.00;;
56116;SDS011;41989;45.356;20.392;2023-04-23T03:05:05;17.85;;;9.50;;
56116;SDS011;41989;45.356;20.392;2023-04-23T03:07:31;18.17;;;9.75;;
56116;SDS011;41989;45.356;20.392;2023-04-23T03:09:57;14.32;;;8.77;;
56116;SDS011;41989;45.356;20.392;2023-04-23T03:12:23;16.33;;;8.77;;
56116;SDS011;41989;45.356;20.392;2023-04-23T03:14:49;18.85;;;9.10;;
56116;SDS011;41989;45.356;20.392;2023-04-23T03:17:15;13.55;;;8.75;;
56116;SDS011;41989;45.356;20.392;2023-04-23T03:19:42;16.55;;;10.00;;
56116;SDS011;41989;45.356;20.392;2023-04-23T03:22:08;13.77;;;9.10;;
56116;SDS011;41989;45.356;20.392;2023-04-23T03:24:34;15.10;;;9.13;;
56116;SDS011;41989;45.356;20.392;2023-04-23T03:27:02;14.32;;;9.75;;
56116;SDS011;41989;45.356;20.392;2023-04-23T03:29:29;15.57;;;9.27;;
56116;SDS011;41989;45.356;20.392;2023-04-23T03:31:55;15.73;;;9.10;;
56116;SDS011;41989;45.356;20.392;2023-04-23T03:34:21;18.42;;;9.68;;
56116;SDS011;41989;45.356;20.392;2023-04-23T03:36:47;17.00;;;9.07;;
56116;SDS011;41989;45.356;20.392;2023-04-23T03:39:14;14.15;;;8.95;;
56116;SDS011;41989;45.356;20.392;2023-04-23T03:41:42;16.98;;;9.30;;
56116;SDS011;41989;45.356;20.392;2023-04-23T03:44:08;19.65;;;9.88;;
56116;SDS011;41989;45.356;20.392;2023-04-23T03:46:34;18.23;;;9.52;;
56116;SDS011;41989;45.356;20.392;2023-04-23T03:49:00;13.65;;;8.23;;
56116;SDS011;41989;45.356;20.392;2023-04-23T03:51:26;12.77;;;8.50;;
56116;SDS011;41989;45.356;20.392;2023-04-23T03:53:52;17.45;;;9.23;;
56116;SDS011;41989;45.356;20.392;2023-04-23T03:56:24;12.38;;;9.02;;
56116;SDS011;41989;45.356;20.392;2023-04-23T03:58:50;15.65;;;8.77;;
56116;SDS011;41989;45.356;20.392;2023-04-23T04:01:16;15.15;;;8.55;;
56116;SDS011;41989;45.356;20.392;2023-04-23T04:03:42;12.75;;;8.85;;
56116;SDS011;41989;45.356;20.392;2023-04-23T04:06:08;17.52;;;8.95;;
56116;SDS011;41989;45.356;20.392;2023-04-23T04:08:34;13.23;;;9.23;;
56116;SDS011;41989;45.356;20.392;2023-04-23T04:11:03;16.02;;;8.57;;
56116;SDS011;41989;45.356;20.392;2023-04-23T04:13:29;15.75;;;9.25;;
56116;SDS011;41989;45.356;20.392;2023-04-23T04:15:55;16.45;;;8.77;;
56116;SDS011;41989;45.356;20.392;2023-04-23T04:18:21;15.52;;;8.65;;
56116;SDS011;41989;45.356;20.392;2023-04-23T04:20:47;15.23;;;8.77;;
56116;SDS011;41989;45.356;20.392;2023-04-23T04:23:15;12.55;;;9.15;;
56116;SDS011;41989;45.356;20.392;2023-04-23T04:25:41;16.65;;;8.38;;
56116;SDS011;41989;45.356;20.392;2023-04-23T04:28:09;21.02;;;9.00;;
56116;SDS011;41989;45.356;20.392;2023-04-23T04:30:36;14.10;;;9.48;;
56116;SDS011;41989;45.356;20.392;2023-04-23T04:33:02;28.27;;;13.98;;
56116;SDS011;41989;45.356;20.392;2023-04-23T04:35:28;30.00;;;16.08;;
56116;SDS011;41989;45.356;20.392;2023-04-23T04:37:55;17.90;;;11.77;;
56116;SDS011;41989;45.356;20.392;2023-04-23T04:40:23;18.98;;;11.77;;
56116;SDS011;41989;45.356;20.392;2023-04-23T04:42:50;21.58;;;11.15;;
56116;SDS011;41989;45.356;20.392;2023-04-23T04:45:16;25.00;;;11.20;;
56116;SDS011;41989;45.356;20.392;2023-04-23T04:47:43;11.82;;;7.60;;
56116;SDS011;41989;45.356;20.392;2023-04-23T04:50:09;11.50;;;7.60;;
56116;SDS011;41989;45.356;20.392;2023-04-23T04:52:36;14.20;;;8.00;;
56116;SDS011;41989;45.356;20.392;2023-04-23T04:55:02;12.60;;;8.18;;
56116;SDS011;41989;45.356;20.392;2023-04-23T04:57:30;18.25;;;8.07;;
56116;SDS011;41989;45.356;20.392;2023-04-23T04:59:56;11.50;;;6.88;;
56116;SDS011;41989;45.356;20.392;2023-04-23T05:02:22;13.13;;;7.35;;
56116;SDS011;41989;45.356;20.392;2023-04-23T05:04:50;14.63;;;8.23;;
56116;SDS011;41989;45.356;20.392;2023-04-23T05:07:16;11.75;;;7.32;;
56116;SDS011;41989;45.356;20.392;2023-04-23T05:09:42;11.38;;;6.65;;
56116;SDS011;41989;45.356;20.392;2023-04-23T05:12:08;10.75;;;7.05;;
56116;SDS011;41989;45.356;20.392;2023-04-23T05:14:34;11.63;;;6.30;;
56116;SDS011;41989;45.356;20.392;2023-04-23T05:17:01;10.52;;;6.35;;
56116;SDS011;41989;45.356;20.392;2023-04-23T05:19:27;13.73;;;6.72;;
56116;SDS011;41989;45.356;20.392;2023-04-23T05:21:53;10.95;;;6.05;;
56116;SDS011;41989;45.356;20.392;2023-04-23T05:24:19;11.52;;;6.28;;
56116;SDS011;41989;45.356;20.392;2023-04-23T05:26:45;9.00;;;6.68;;
56116;SDS011;41989;45.356;20.392;2023-04-23T05:29:11;9.73;;;6.85;;
56116;SDS011;41989;45.356;20.392;2023-04-23T05:31:43;13.82;;;7.03;;
56116;SDS011;41989;45.356;20.392;2023-04-23T05:34:09;15.70;;;6.75;;
56116;SDS011;41989;45.356;20.392;2023-04-23T05:36:35;10.20;;;6.47;;
56116;SDS011;41989;45.356;20.392;2023-04-23T05:39:01;10.90;;;5.85;;
56116;SDS011;41989;45.356;20.392;2023-04-23T05:41:27;9.25;;;5.70;;
56116;SDS011;41989;45.356;20.392;2023-04-23T05:43:53;11.95;;;5.45;;
56116;SDS011;41989;45.356;20.392;2023-04-23T05:46:20;10.23;;;5.38;;
56116;SDS011;41989;45.356;20.392;2023-04-23T05:48:46;12.07;;;5.75;;
56116;SDS011;41989;45.356;20.392;2023-04-23T05:51:12;7.78;;;5.38;;
56116;SDS011;41989;45.356;20.392;2023-04-23T05:53:38;8.75;;;5.43;;
56116;SDS011;41989;45.356;20.392;2023-04-23T05:56:04;8.75;;;5.60;;
56116;SDS011;41989;45.356;20.392;2023-04-23T05:58:30;10.23;;;5.22;;
56116;SDS011;41989;45.356;20.392;2023-04-23T06:00:56;11.57;;;5.63;;
56116;SDS011;41989;45.356;20.392;2023-04-23T06:03:22;10.85;;;5.53;;
56116;SDS011;41989;45.356;20.392;2023-04-23T06:05:49;11.68;;;5.50;;
56116;SDS011;41989;45.356;20.392;2023-04-23T06:08:15;11.30;;;5.55;;
56116;SDS011;41989;45.356;20.392;2023-04-23T06:10:41;11.00;;;5.85;;
56116;SDS011;41989;45.356;20.392;2023-04-23T06:13:07;10.70;;;5.55;;
56116;SDS011;41989;45.356;20.392;2023-04-23T06:15:34;8.68;;;5.43;;
56116;SDS011;41989;45.356;20.392;2023-04-23T06:18:01;9.18;;;5.60;;
56116;SDS011;41989;45.356;20.392;2023-04-23T06:20:27;11.07;;;5.65;;
56116;SDS011;41989;45.356;20.392;2023-04-23T06:22:56;8.23;;;5.22;;
56116;SDS011;41989;45.356;20.392;2023-04-23T06:25:22;13.88;;;4.93;;
56116;SDS011;41989;45.356;20.392;2023-04-23T06:27:49;7.18;;;5.05;;
56116;SDS011;41989;45.356;20.392;2023-04-23T06:30:15;13.02;;;5.28;;
56116;SDS011;41989;45.356;20.392;2023-04-23T06:32:41;9.93;;;4.85;;
56116;SDS011;41989;45.356;20.392;2023-04-23T06:35:07;8.35;;;4.78;;
56116;SDS011;41989;45.356;20.392;2023-04-23T06:37:33;9.00;;;5.25;;
56116;SDS011;41989;45.356;20.392;2023-04-23T06:39:59;15.40;;;5.22;;
56116;SDS011;41989;45.356;20.392;2023-04-23T06:42:26;7.20;;;4.07;;
56116;SDS011;41989;45.356;20.392;2023-04-23T06:44:52;8.38;;;4.00;;
56116;SDS011;41989;45.356;20.392;2023-04-23T06:47:18;13.15;;;4.97;;
56116;SDS011;41989;45.356;20.392;2023-04-23T06:49:44;9.50;;;5.38;;
56116;SDS011;41989;45.356;20.392;2023-04-23T06:52:11;10.93;;;5.25;;
56116;SDS011;41989;45.356;20.392;2023-04-23T06:54:37;10.40;;;5.15;;
56116;SDS011;41989;45.356;20.392;2023-04-23T06:57:06;12.82;;;4.80;;
56116;SDS011;41989;45.356;20.392;2023-04-23T06:59:32;15.98;;;4.60;;
56116;SDS011;41989;45.356;20.392;2023-04-23T07:01:58;12.45;;;4.50;;
56116;SDS011;41989;45.356;20.392;2023-04-23T07:04:24;8.80;;;4.03;;
56116;SDS011;41989;45.356;20.392;2023-04-23T07:06:50;7.47;;;4.00;;
56116;SDS011;41989;45.356;20.392;2023-04-23T07:09:16;11.18;;;4.30;;
56116;SDS011;41989;45.356;20.392;2023-04-23T07:11:42;9.07;;;4.20;;
56116;SDS011;41989;45.356;20.392;2023-04-23T07:14:09;10.02;;;4.28;;
56116;SDS011;41989;45.356;20.392;2023-04-23T07:16:37;8.15;;;3.95;;
56116;SDS011;41989;45.356;20.392;2023-04-23T07:19:04;12.05;;;4.15;;
56116;SDS011;41989;45.356;20.392;2023-04-23T07:21:30;7.45;;;3.80;;
56116;SDS011;41989;45.356;20.392;2023-04-23T07:23:57;7.68;;;4.07;;
56116;SDS011;41989;45.356;20.392;2023-04-23T07:26:31;29.85;;;8.38;;
56116;SDS011;41989;45.356;20.392;2023-04-23T07:28:57;21.35;;;10.85;;
56116;SDS011;41989;45.356;20.392;2023-04-23T07:31:25;44.50;;;31.90;;
56116;SDS011;41989;45.356;20.392;2023-04-23T07:33:51;6.82;;;3.47;;
56116;SDS011;41989;45.356;20.392;2023-04-23T07:36:17;7.50;;;3.55;;
56116;SDS011;41989;45.356;20.392;2023-04-23T07:38:43;11.75;;;3.75;;
56116;SDS011;41989;45.356;20.392;2023-04-23T07:41:09;6.35;;;3.33;;
56116;SDS011;41989;45.356;20.392;2023-04-23T07:43:35;8.95;;;4.28;;
56116;SDS011;41989;45.356;20.392;2023-04-23T07:46:02;10.88;;;4.10;;
56116;SDS011;41989;45.356;20.392;2023-04-23T07:48:29;10.48;;;3.55;;
56116;SDS011;41989;45.356;20.392;2023-04-23T07:50:55;6.10;;;3.20;;
56116;SDS011;41989;45.356;20.392;2023-04-23T07:53:21;8.15;;;3.20;;
56116;SDS011;41989;45.356;20.392;2023-04-23T07:55:47;10.60;;;4.82;;
56116;SDS011;41989;45.356;20.392;2023-04-23T07:58:14;7.53;;;3.55;;
56116;SDS011;41989;45.356;20.392;2023-04-23T08:00:40;8.63;;;4.07;;
56116;SDS011;41989;45.356;20.392;2023-04-23T08:03:06;10.60;;;4.10;;
56116;SDS011;41989;45.356;20.392;2023-04-23T08:05:32;8.88;;;3.45;;
56116;SDS011;41989;45.356;20.392;2023-04-23T08:07:58;9.10;;;4.00;;
56116;SDS011;41989;45.356;20.392;2023-04-23T08:10:24;11.93;;;4.18;;
56116;SDS011;41989;45.356;20.392;2023-04-23T08:12:50;12.60;;;3.10;;
56116;SDS011;41989;45.356;20.392;2023-04-23T08:15:17;7.82;;;3.25;;
56116;SDS011;41989;45.356;20.392;2023-04-23T08:17:43;5.82;;;3.20;;
56116;SDS011;41989;45.356;20.392;2023-04-23T08:20:09;8.80;;;3.63;;
56116;SDS011;41989;45.356;20.392;2023-04-23T08:22:35;8.13;;;3.40;;
56116;SDS011;41989;45.356;20.392;2023-04-23T08:25:01;10.30;;;3.92;;
56116;SDS011;41989;45.356;20.392;2023-04-23T08:27:28;10.98;;;3.22;;
56116;SDS011;41989;45.356;20.392;2023-04-23T08:29:57;14.38;;;3.58;;
56116;SDS011;41989;45.356;20.392;2023-04-23T08:32:23;12.40;;;3.58;;
56116;SDS011;41989;45.356;20.392;2023-04-23T08:34:52;7.47;;;2.97;;
56116;SDS011;41989;45.356;20.392;2023-04-23T08:37:18;10.10;;;4.53;;
56116;SDS011;41989;45.356;20.392;2023-04-23T08:39:44;9.77;;;3.28;;
56116;SDS011;41989;45.356;20.392;2023-04-23T08:42:14;11.32;;;3.15;;
56116;SDS011;41989;45.356;20.392;2023-04-23T08:44:43;9.82;;;3.85;;
56116;SDS011;41989;45.356;20.392;2023-04-23T08:47:11;10.63;;;3.33;;
56116;SDS011;41989;45.356;20.392;2023-04-23T08:49:40;8.27;;;3.45;;
56116;SDS011;41989;45.356;20.392;2023-04-23T08:52:17;11.35;;;3.60;;
56116;SDS011;41989;45.356;20.392;2023-04-23T08:54:45;7.70;;;2.63;;
56116;SDS011;41989;45.356;20.392;2023-04-23T08:57:11;10.48;;;3.35;;
56116;SDS011;41989;45.356;20.392;2023-04-23T08:59:38;7.53;;;3.50;;
56116;SDS011;41989;45.356;20.392;2023-04-23T09:02:04;5.30;;;3.00;;
56116;SDS011;41989;45.356;20.392;2023-04-23T09:04:34;12.13;;;3.47;;
56116;SDS011;41989;45.356;20.392;2023-04-23T09:07:00;8.75;;;3.50;;
56116;SDS011;41989;45.356;20.392;2023-04-23T09:09:26;8.48;;;3.92;;
56116;SDS011;41989;45.356;20.392;2023-04-23T09:11:54;9.63;;;3.08;;
56116;SDS011;41989;45.356;20.392;2023-04-23T09:14:21;7.25;;;3.22;;
56116;SDS011;41989;45.356;20.392;2023-04-23T09:16:49;9.85;;;3.15;;
56116;SDS011;41989;45.356;20.392;2023-04-23T09:19:18;11.32;;;3.03;;
56116;SDS011;41989;45.356;20.392;2023-04-23T09:21:45;10.13;;;3.80;;
56116;SDS011;41989;45.356;20.392;2023-04-23T09:24:11;6.95;;;2.50;;
56116;SDS011;41989;45.356;20.392;2023-04-23T09:26:45;9.80;;;3.38;;
56116;SDS011;41989;45.356;20.392;2023-04-23T09:29:15;7.95;;;3.17;;
56116;SDS011;41989;45.356;20.392;2023-04-23T09:31:45;7.32;;;3.55;;
56116;SDS011;41989;45.356;20.392;2023-04-23T09:34:17;5.25;;;2.65;;
56116;SDS011;41989;45.356;20.392;2023-04-23T09:36:43;8.80;;;3.40;;
56116;SDS011;41989;45.356;20.392;2023-04-23T09:39:10;10.32;;;3.10;;
56116;SDS011;41989;45.356;20.392;2023-04-23T09:41:36;9.88;;;3.00;;
56116;SDS011;41989;45.356;20.392;2023-04-23T09:44:02;7.93;;;3.15;;
56116;SDS011;41989;45.356;20.392;2023-04-23T09:46:35;9.07;;;4.13;;
56116;SDS011;41989;45.356;20.392;2023-04-23T09:49:02;7.78;;;3.38;;
56116;SDS011;41989;45.356;20.392;2023-04-23T09:51:31;6.90;;;3.10;;
56116;SDS011;41989;45.356;20.392;2023-04-23T09:53:58;10.18;;;3.55;;
56116;SDS011;41989;45.356;20.392;2023-04-23T09:56:27;10.52;;;3.35;;
56116;SDS011;41989;45.356;20.392;2023-04-23T09:58:54;9.70;;;3.55;;
56116;SDS011;41989;45.356;20.392;2023-04-23T10:01:26;10.52;;;3.53;;
56116;SDS011;41989;45.356;20.392;2023-04-23T10:03:53;10.63;;;3.60;;
56116;SDS011;41989;45.356;20.392;2023-04-23T10:06:25;6.68;;;3.60;;
56116;SDS011;41989;45.356;20.392;2023-04-23T10:08:53;10.85;;;3.55;;
56116;SDS011;41989;45.356;20.392;2023-04-23T10:11:21;7.95;;;3.53;;
56116;SDS011;41989;45.356;20.392;2023-04-23T10:13:47;7.40;;;3.42;;
56116;SDS011;41989;45.356;20.392;2023-04-23T10:16:13;12.38;;;3.40;;
56116;SDS011;41989;45.356;20.392;2023-04-23T10:18:39;9.02;;;3.55;;
56116;SDS011;41989;45.356;20.392;2023-04-23T10:21:12;12.70;;;4.22;;
56116;SDS011;41989;45.356;20.392;2023-04-23T10:23:40;11.85;;;3.78;;
56116;SDS011;41989;45.356;20.392;2023-04-23T10:26:08;10.73;;;3.30;;
56116;SDS011;41989;45.356;20.392;2023-04-23T10:28:36;4.70;;;3.20;;
56116;SDS011;41989;45.356;20.392;2023-04-23T10:31:02;8.18;;;3.75;;
56116;SDS011;41989;45.356;20.392;2023-04-23T10:33:33;8.70;;;3.47;;
56116;SDS011;41989;45.356;20.392;2023-04-23T10:35:59;7.32;;;3.40;;
56116;SDS011;41989;45.356;20.392;2023-04-23T10:38:26;9.38;;;3.40;;
56116;SDS011;41989;45.356;20.392;2023-04-23T10:40:52;9.05;;;3.80;;
56116;SDS011;41989;45.356;20.392;2023-04-23T10:43:20;8.45;;;3.83;;
56116;SDS011;41989;45.356;20.392;2023-04-23T10:45:48;8.75;;;3.28;;
56116;SDS011;41989;45.356;20.392;2023-04-23T10:48:14;6.90;;;3.65;;
56116;SDS011;41989;45.356;20.392;2023-04-23T10:50:41;7.43;;;3.47;;
56116;SDS011;41989;45.356;20.392;2023-04-23T10:53:17;13.13;;;3.35;;
56116;SDS011;41989;45.356;20.392;2023-04-23T10:55:43;10.93;;;3.70;;
56116;SDS011;41989;45.356;20.392;2023-04-23T10:58:09;7.45;;;3.65;;
56116;SDS011;41989;45.356;20.392;2023-04-23T11:05:53;8.02;;;3.42;;
56116;SDS011;41989;45.356;20.392;2023-04-23T11:08:19;9.48;;;3.40;;
56116;SDS011;41989;45.356;20.392;2023-04-23T11:10:55;13.68;;;3.78;;
56116;SDS011;41989;45.356;20.392;2023-04-23T11:13:22;7.03;;;3.30;;
56116;SDS011;41989;45.356;20.392;2023-04-23T11:16:11;7.35;;;3.03;;
56116;SDS011;41989;45.356;20.392;2023-04-23T11:24:28;6.90;;;3.55;;
56116;SDS011;41989;45.356;20.392;2023-04-23T11:29:21;10.60;;;4.40;;
56116;SDS011;41989;45.356;20.392;2023-04-23T11:34:16;7.18;;;3.63;;
56116;SDS011;41989;45.356;20.392;2023-04-23T11:36:43;8.23;;;3.30;;
56116;SDS011;41989;45.356;20.392;2023-04-23T11:39:09;11.50;;;5.65;;
56116;SDS011;41989;45.356;20.392;2023-04-23T11:41:36;12.60;;;4.43;;
56116;SDS011;41989;45.356;20.392;2023-04-23T11:44:03;12.98;;;4.47;;
56116;SDS011;41989;45.356;20.392;2023-04-23T11:46:30;8.60;;;3.22;;
56116;SDS011;41989;45.356;20.392;2023-04-23T11:48:58;6.07;;;3.28;;
56116;SDS011;41989;45.356;20.392;2023-04-23T11:51:25;8.52;;;3.83;;
56116;SDS011;41989;45.356;20.392;2023-04-23T11:53:51;7.45;;;3.10;;
56116;SDS011;41989;45.356;20.392;2023-04-23T11:56:17;6.00;;;3.33;;
56116;SDS011;41989;45.356;20.392;2023-04-23T11:58:56;9.13;;;3.80;;
56116;SDS011;41989;45.356;20.392;2023-04-23T12:01:23;8.55;;;3.40;;
56116;SDS011;41989;45.356;20.392;2023-04-23T12:03:49;7.32;;;3.95;;
56116;SDS011;41989;45.356;20.392;2023-04-23T12:06:16;8.38;;;3.22;;
56116;SDS011;41989;45.356;20.392;2023-04-23T12:08:45;11.45;;;3.55;;
56116;SDS011;41989;45.356;20.392;2023-04-23T12:11:11;6.95;;;3.28;;
56116;SDS011;41989;45.356;20.392;2023-04-23T12:13:39;5.68;;;3.75;;
56116;SDS011;41989;45.356;20.392;2023-04-23T12:16:06;6.80;;;3.50;;
56116;SDS011;41989;45.356;20.392;2023-04-23T12:18:33;9.70;;;3.90;;
56116;SDS011;41989;45.356;20.392;2023-04-23T12:21:05;9.57;;;3.80;;
56116;SDS011;41989;45.356;20.392;2023-04-23T12:23:31;5.38;;;2.90;;
56116;SDS011;41989;45.356;20.392;2023-04-23T12:26:00;6.10;;;3.38;;
56116;SDS011;41989;45.356;20.392;2023-04-23T12:28:27;11.35;;;3.80;;
56116;SDS011;41989;45.356;20.392;2023-04-23T12:30:57;6.57;;;3.20;;
56116;SDS011;41989;45.356;20.392;2023-04-23T12:33:27;6.22;;;3.05;;
56116;SDS011;41989;45.356;20.392;2023-04-23T12:35:53;6.30;;;2.97;;
56116;SDS011;41989;45.356;20.392;2023-04-23T12:38:20;5.35;;;3.13;;
56116;SDS011;41989;45.356;20.392;2023-04-23T12:40:48;9.32;;;3.42;;
56116;SDS011;41989;45.356;20.392;2023-04-23T12:43:14;5.53;;;3.03;;
56116;SDS011;41989;45.356;20.392;2023-04-23T12:45:40;4.13;;;2.63;;
56116;SDS011;41989;45.356;20.392;2023-04-23T12:48:06;6.47;;;3.42;;
56116;SDS011;41989;45.356;20.392;2023-04-23T12:50:32;7.18;;;2.70;;
56116;SDS011;41989;45.356;20.392;2023-04-23T12:52:59;10.15;;;3.10;;
56116;SDS011;41989;45.356;20.392;2023-04-23T12:55:25;8.63;;;3.30;;
56116;SDS011;41989;45.356;20.392;2023-04-23T12:57:54;5.40;;;3.50;;
56116;SDS011;41989;45.356;20.392;2023-04-23T13:00:21;6.47;;;2.97;;
56116;SDS011;41989;45.356;20.392;2023-04-23T13:02:47;5.68;;;2.83;;
56116;SDS011;41989;45.356;20.392;2023-04-23T13:05:13;4.90;;;3.03;;
56116;SDS011;41989;45.356;20.392;2023-04-23T13:07:40;6.40;;;2.85;;
56116;SDS011;41989;45.356;20.392;2023-04-23T13:10:06;10.40;;;3.20;;
56116;SDS011;41989;45.356;20.392;2023-04-23T13:12:33;5.63;;;3.03;;
56116;SDS011;41989;45.356;20.392;2023-04-23T13:14:59;3.92;;;3.00;;
56116;SDS011;41989;45.356;20.392;2023-04-23T13:17:25;7.38;;;2.95;;
56116;SDS011;41989;45.356;20.392;2023-04-23T13:19:52;7.13;;;3.28;;
56116;SDS011;41989;45.356;20.392;2023-04-23T13:22:18;7.55;;;3.17;;
56116;SDS011;41989;45.356;20.392;2023-04-23T13:24:44;7.45;;;3.25;;
56116;SDS011;41989;45.356;20.392;2023-04-23T13:27:11;6.32;;;3.00;;
56116;SDS011;41989;45.356;20.392;2023-04-23T13:29:37;7.75;;;2.80;;
56116;SDS011;41989;45.356;20.392;2023-04-23T13:32:04;7.63;;;3.53;;
56116;SDS011;41989;45.356;20.392;2023-04-23T13:34:33;6.07;;;2.53;;
56116;SDS011;41989;45.356;20.392;2023-04-23T13:36:59;4.78;;;2.88;;
56116;SDS011;41989;45.356;20.392;2023-04-23T13:41:55;5.78;;;3.05;;
56116;SDS011;41989;45.356;20.392;2023-04-23T13:44:21;7.45;;;3.17;;
56116;SDS011;41989;45.356;20.392;2023-04-23T13:46:48;4.65;;;3.00;;
56116;SDS011;41989;45.356;20.392;2023-04-23T13:49:14;11.10;;;3.38;;
56116;SDS011;41989;45.356;20.392;2023-04-23T13:51:41;6.72;;;3.28;;
56116;SDS011;41989;45.356;20.392;2023-04-23T13:54:07;5.13;;;2.90;;
56116;SDS011;41989;45.356;20.392;2023-04-23T13:56:33;5.60;;;2.92;;
56116;SDS011;41989;45.356;20.392;2023-04-23T13:59:01;4.10;;;2.65;;
56116;SDS011;41989;45.356;20.392;2023-04-23T14:01:28;8.80;;;3.05;;
56116;SDS011;41989;45.356;20.392;2023-04-23T14:03:54;7.15;;;3.60;;
56116;SDS011;41989;45.356;20.392;2023-04-23T14:06:24;4.82;;;3.03;;
56116;SDS011;41989;45.356;20.392;2023-04-23T14:08:50;7.53;;;3.22;;
56116;SDS011;41989;45.356;20.392;2023-04-23T14:11:17;8.00;;;3.35;;
56116;SDS011;41989;45.356;20.392;2023-04-23T14:13:43;5.32;;;3.38;;
56116;SDS011;41989;45.356;20.392;2023-04-23T14:16:09;6.90;;;3.15;;
56116;SDS011;41989;45.356;20.392;2023-04-23T14:18:35;11.00;;;2.97;;
56116;SDS011;41989;45.356;20.392;2023-04-23T14:21:01;6.95;;;2.92;;
56116;SDS011;41989;45.356;20.392;2023-04-23T14:26:03;10.27;;;4.53;;
56116;SDS011;41989;45.356;20.392;2023-04-23T14:28:39;5.03;;;3.08;;
56116;SDS011;41989;45.356;20.392;2023-04-23T14:31:06;8.27;;;3.17;;
56116;SDS011;41989;45.356;20.392;2023-04-23T14:33:32;9.25;;;3.30;;
56116;SDS011;41989;45.356;20.392;2023-04-23T14:35:58;8.10;;;3.15;;
56116;SDS011;41989;45.356;20.392;2023-04-23T14:38:24;9.18;;;3.75;;
56116;SDS011;41989;45.356;20.392;2023-04-23T14:40:54;10.47;;;3.27;;
56116;SDS011;41989;45.356;20.392;2023-04-23T14:43:20;6.30;;;3.50;;
56116;SDS011;41989;45.356;20.392;2023-04-23T14:45:46;8.35;;;3.17;;